Time;durP1;ratioP1;P1;durP2;ratioP2;P2;SDS_P1;SDS_P2;PMS_P1;PMS_P2;Temp;Humidity;BMP_temperature;BMP_pressure;BME280_temperature;BME280_humidity;BME280_pressure;Samples;Min_cycle;Max_cycle;Signal;HPM_P1;HPM_P2
2024/04/19 00:01:05;;;;;;;6.28;1.40;;;;;;;9.69;73.35;100163.13;5404902;26;20028;-47
2024/04/19 00:03:32;;;;;;;2.38;0.93;;;;;;;9.74;72.76;100164.03;5400536;26;20004;-47
2024/04/19 00:06:00;;;;;;;3.85;1.75;;;;;;;9.78;72.96;100167.47;5404252;26;20015;-46
2024/04/19 00:08:28;;;;;;;5.15;1.33;;;;;;;9.77;72.88;100164.03;5403604;26;20584;-48
2024/04/19 00:10:55;;;;;;;1.98;0.70;;;;;;;9.80;72.78;100163.19;5402221;26;20082;-46
2024/04/19 00:13:24;;;;;;;1.42;0.93;;;;;;;9.82;73.16;100163.16;5392082;26;20380;-47
2024/04/19 00:15:52;;;;;;;2.00;0.95;;;;;;;9.81;72.95;100153.69;5411337;26;20018;-50
2024/04/19 00:18:20;;;;;;;3.30;1.05;;;;;;;9.79;73.21;100155.41;5410439;26;20018;-47
2024/04/19 00:20:48;;;;;;;5.55;0.88;;;;;;;9.80;73.66;100159.72;5412235;26;20014;-49
2024/04/19 00:23:16;;;;;;;2.70;0.98;;;;;;;9.83;73.21;100157.16;5404754;26;20014;-52
2024/04/19 00:25:43;;;;;;;2.25;1.35;;;;;;;9.84;72.75;100157.16;5405744;26;20007;-51
2024/04/19 00:28:11;;;;;;;2.08;1.02;;;;;;;9.88;72.99;100163.19;5408119;26;20480;-50
2024/04/19 00:30:40;;;;;;;6.30;1.55;;;;;;;9.87;73.25;100161.47;5402759;26;20032;-49
2024/04/19 00:33:08;;;;;;;1.77;1.10;;;;;;;9.88;72.78;100160.59;5405783;26;20022;-48
2024/04/19 00:35:40;;;;;;;4.40;0.98;;;;;;;9.83;73.62;100159.75;5396257;26;20065;-51
2024/04/19 00:38:08;;;;;;;5.18;1.70;;;;;;;9.86;73.23;100162.34;5407368;26;20059;-50
2024/04/19 00:40:36;;;;;;;2.47;0.75;;;;;;;9.86;73.35;100152.00;5404876;26;20047;-49
2024/04/19 00:43:04;;;;;;;3.30;0.88;;;;;;;9.83;73.88;100149.41;5408453;26;20007;-50
2024/04/19 00:48:12;;;;;;;4.10;0.73;;;;;;;9.79;74.54;100148.50;5430941;26;20382;-50
2024/04/19 00:50:43;;;;;;;3.38;1.33;;;;;;;9.82;74.41;100152.81;5364744;26;20012;-48
2024/04/19 00:53:12;;;;;;;;;;;;;;;9.73;74.85;100154.53;5367768;26;20000;-49
2024/04/19 00:55:41;;;;;;;3.20;0.65;;;;;;;9.77;74.93;100145.91;5382336;26;20465;-56
2024/04/19 00:58:09;;;;;;;2.80;1.02;;;;;;;9.80;75.57;100154.56;5382625;26;20050;-48
2024/04/19 01:00:37;;;;;;;1.40;0.90;;;;;;;9.86;75.08;100146.81;5382256;26;20040;-47
2024/04/19 01:03:04;;;;;;;1.10;0.60;;;;;;;9.89;75.18;100146.78;5375946;26;20012;-48
2024/04/19 01:05:31;;;;;;;1.55;0.80;;;;;;;9.93;75.21;100151.13;5370999;26;20040;-49
2024/04/19 01:07:58;;;;;;;1.77;0.80;;;;;;;9.86;76.76;100139.06;5359192;26;20036;-49
2024/04/19 01:10:25;;;;;;;2.50;2.30;;;;;;;9.88;76.53;100140.78;5374128;26;20657;-48
2024/04/19 01:12:52;;;;;;;5.88;0.88;;;;;;;9.92;76.61;100127.84;5367466;26;20017;-49
2024/04/19 01:15:21;;;;;;;5.38;1.13;;;;;;;9.94;76.26;100129.56;5363866;26;20001;-53
2024/04/19 01:17:49;;;;;;;4.38;0.93;;;;;;;9.95;76.79;100122.66;5385088;26;20483;-48
2024/04/19 01:20:16;;;;;;;2.88;1.10;;;;;;;9.96;76.59;100124.41;5375619;26;20011;-49
2024/04/19 01:22:45;;;;;;;3.65;0.77;;;;;;;9.94;77.02;100114.06;5368934;26;20010;-48
2024/04/19 01:25:21;;;;;;;4.53;1.25;;;;;;;10.03;76.21;100126.97;5373580;26;20012;-50
2024/04/19 01:27:48;;;;;;;2.63;1.30;;;;;;;10.09;75.66;100125.25;5376976;26;20019;-50
2024/04/19 01:30:15;;;;;;;2.28;1.08;;;;;;;10.10;75.61;100116.66;5375852;26;20461;-49
2024/04/19 01:32:42;;;;;;;3.22;2.08;;;;;;;10.11;75.65;100113.19;5372725;26;20014;-51
2024/04/19 01:35:09;;;;;;;3.10;1.13;;;;;;;10.06;76.40;100105.41;5366537;26;19997;-48
2024/04/19 01:37:35;;;;;;;2.67;0.98;;;;;;;10.11;75.92;100103.72;5350864;26;20459;-49
2024/04/19 01:40:02;;;;;;;1.95;0.90;;;;;;;10.13;75.51;100101.97;5347746;26;20086;-50
2024/04/19 01:42:29;;;;;;;1.60;0.90;;;;;;;10.12;75.87;100089.03;5348016;26;20040;-50
2024/04/19 01:44:56;;;;;;;1.48;0.73;;;;;;;10.18;75.49;100093.34;5351642;26;20016;-48
2024/04/19 01:47:23;;;;;;;2.47;0.43;;;;;;;10.06;76.39;100096.81;5342676;26;20025;-49
2024/04/19 01:49:50;;;;;;;2.13;0.85;;;;;;;10.13;75.99;100088.16;5342053;26;20021;-48
2024/04/19 01:52:17;;;;;;;2.40;0.95;;;;;;;10.06;76.37;100089.03;5345712;26;20454;-48
2024/04/19 01:54:44;;;;;;;1.63;1.33;;;;;;;10.10;76.22;100083.00;5340951;26;20028;-48
2024/04/19 01:57:11;;;;;;;1.98;0.75;;;;;;;10.06;76.35;100083.88;5340046;26;20016;-49
2024/04/19 01:59:38;;;;;;;5.15;0.80;;;;;;;10.01;76.62;100076.97;5335580;26;20020;-47
2024/04/19 02:02:04;;;;;;;2.25;1.17;;;;;;;10.12;75.85;100079.56;5325299;26;20037;-54
2024/04/19 02:04:32;;;;;;;2.97;0.85;;;;;;;10.14;76.05;100084.72;5328990;26;20001;-51
2024/04/19 02:06:59;;;;;;;2.42;0.90;;;;;;;10.14;75.81;100082.13;5328374;26;20019;-51
2024/04/19 02:09:27;;;;;;;2.88;1.33;;;;;;;10.17;75.26;100087.31;5328080;26;20017;-51
2024/04/19 02:11:54;;;;;;;4.72;0.70;;;;;;;10.21;75.09;100076.09;5327270;26;19997;-50
2024/04/19 02:14:21;;;;;;;1.17;1.00;;;;;;;10.15;75.42;100081.25;5333542;26;20012;-48
2024/04/19 02:16:47;;;;;;;3.65;1.02;;;;;;;10.17;74.92;100079.56;5338974;26;20011;-50
2024/04/19 02:19:14;;;;;;;3.25;1.30;;;;;;;10.21;74.51;100076.09;5336174;26;20025;-50
2024/04/19 02:21:41;;;;;;;3.20;0.93;;;;;;;10.22;74.80;100080.41;5324820;26;20002;-49
2024/04/19 02:24:08;;;;;;;3.15;0.88;;;;;;;10.21;74.41;100078.69;5328774;26;20012;-48
2024/04/19 02:26:35;;;;;;;1.40;0.88;;;;;;;10.17;74.42;100071.78;5331596;26;20001;-51
2024/04/19 02:31:48;;;;;;;6.97;0.90;;;;;;;10.21;74.09;100078.69;5334893;26;20560;-48
2024/04/19 02:34:15;;;;;;;2.00;0.55;;;;;;;10.26;73.92;100079.53;5336358;26;20015;-49
2024/04/19 02:36:42;;;;;;;4.68;0.75;;;;;;;10.21;74.29;100073.50;5337223;26;20005;-51
2024/04/19 02:39:11;;;;;;;4.35;1.02;;;;;;;10.29;73.95;100076.94;5326472;26;20016;-50
2024/04/19 02:41:38;;;;;;;7.32;1.48;;;;;;;10.25;73.99;100059.69;5330408;26;20766;-49
2024/04/19 02:44:05;;;;;;;1.30;0.73;;;;;;;10.21;74.09;100063.16;5321000;26;20746;-50
2024/04/19 02:46:32;;;;;;;4.30;0.88;;;;;;;10.23;73.60;100064.00;5329214;26;20011;-51
2024/04/19 02:48:58;;;;;;;3.90;0.80;;;;;;;10.20;73.59;100061.41;5328239;26;20023;-51
2024/04/19 02:51:25;;;;;;;4.25;1.02;;;;;;;10.22;74.14;100054.53;5330644;26;20008;-52
2024/04/19 02:53:52;;;;;;;2.25;0.70;;;;;;;10.18;74.03;100046.75;5330137;26;20086;-49
2024/04/19 02:56:19;;;;;;;4.53;0.93;;;;;;;10.20;74.17;100047.63;5332281;26;20013;-50
2024/04/19 02:58:46;;;;;;;3.60;1.08;;;;;;;10.23;73.77;100048.47;5329607;26;20016;-49
2024/04/19 03:01:12;;;;;;;1.58;0.73;;;;;;;10.23;73.79;100057.97;5328651;26;20016;-49
2024/04/19 03:03:39;;;;;;;4.57;0.95;;;;;;;10.27;73.70;100054.53;5319270;26;20001;-48
2024/04/19 03:06:06;;;;;;;2.13;0.75;;;;;;;10.23;74.10;100051.06;5327013;26;20005;-50
2024/04/19 03:08:33;;;;;;;2.55;0.70;;;;;;;10.21;73.89;100052.81;5318171;26;20016;-49
2024/04/19 03:11:04;;;;;;;2.60;0.60;;;;;;;10.21;74.23;100050.22;5327776;26;20017;-50
2024/04/19 03:13:31;;;;;;;2.50;1.23;;;;;;;10.19;74.03;100054.53;5333572;26;20553;-49
2024/04/19 03:16:07;;;;;;;2.65;0.70;;;;;;;10.17;74.19;100035.56;5325813;26;20001;-48
2024/04/19 03:18:34;;;;;;;1.67;0.70;;;;;;;10.22;73.95;100043.28;5331292;26;20009;-53
2024/04/19 03:21:01;;;;;;;5.68;0.88;;;;;;;10.16;74.41;100038.97;5335774;26;20023;-53
2024/04/19 03:23:28;;;;;;;1.73;0.68;;;;;;;10.12;74.19;100032.09;5329694;26;20574;-48
2024/04/19 03:25:57;;;;;;;9.07;1.30;;;;;;;10.11;74.37;100035.56;5326806;26;20017;-48
2024/04/19 03:28:24;;;;;;;5.43;1.10;;;;;;;10.05;74.42;100014.84;5330367;26;20478;-51
2024/04/19 03:30:51;;;;;;;3.13;0.98;;;;;;;10.11;74.08;100025.19;5325704;26;20005;-50
2024/04/19 03:33:17;;;;;;;2.38;0.68;;;;;;;9.97;74.23;100022.63;5322639;26;20009;-50
2024/04/19 03:35:44;;;;;;;3.67;1.33;;;;;;;10.06;73.96;100037.28;5324327;26;20001;-49
2024/04/19 03:38:14;;;;;;;2.60;1.75;;;;;;;9.96;74.52;100037.28;5332626;26;20009;-48
2024/04/19 03:40:50;;;;;;;1.73;0.77;;;;;;;9.99;74.02;100032.09;5320791;26;20025;-48
2024/04/19 03:43:17;;;;;;;2.88;1.17;;;;;;;9.93;74.25;100032.09;5331775;26;20019;-49
2024/04/19 03:45:44;;;;;;;2.08;0.75;;;;;;;9.95;73.96;100029.50;5324983;26;20001;-47
2024/04/19 03:48:12;;;;;;;1.75;0.60;;;;;;;9.92;74.24;100014.84;5328338;26;20763;-53
2024/04/19 03:50:45;;;;;;;2.13;0.60;;;;;;;9.95;74.03;100025.22;5337106;26;20474;-49
2024/04/19 03:53:13;;;;;;;0.90;0.45;;;;;;;9.97;73.96;100020.03;5332117;26;19997;-49
2024/04/19 03:55:39;;;;;;;1.77;0.93;;;;;;;10.00;73.86;100033.81;5328175;26;20368;-48
2024/04/19 03:58:06;;;;;;;3.83;0.60;;;;;;;9.98;73.62;100035.56;5333298;26;20015;-51
2024/04/19 04:00:38;;;;;;;2.47;0.77;;;;;;;10.01;73.92;100027.81;5314572;26;20332;-50
2024/04/19 04:03:05;;;;;;;2.30;1.27;;;;;;;9.98;73.83;100025.22;5323251;26;20012;-48
2024/04/19 04:05:33;;;;;;;1.90;0.90;;;;;;;9.96;73.72;100029.50;5327300;26;20635;-49
2024/04/19 04:08:00;;;;;;;0.52;0.30;;;;;;;9.83;74.05;100027.81;5325547;26;20009;-48
2024/04/19 04:10:27;;;;;;;5.43;1.13;;;;;;;9.98;73.58;100024.34;5342871;26;20015;-51
2024/04/19 04:12:56;;;;;;;2.30;1.10;;;;;;;9.98;73.40;100025.22;5328074;26;20041;-50
2024/04/19 04:15:24;;;;;;;5.22;0.60;;;;;;;9.90;73.51;100019.19;5320288;26;20027;-48
2024/04/19 04:17:51;;;;;;;3.65;0.52;;;;;;;9.94;73.48;100020.03;5326944;26;20013;-48
2024/04/19 04:20:18;;;;;;;0.90;0.38;;;;;;;9.91;73.70;100023.50;5331920;26;20001;-47
2024/04/19 04:22:45;;;;;;;2.08;0.47;;;;;;;9.92;73.70;100020.03;5332641;26;20008;-52
2024/04/19 04:25:12;;;;;;;3.90;0.60;;;;;;;9.93;73.68;100010.56;5335098;26;20091;-48
2024/04/19 04:27:38;;;;;;;2.10;1.95;;;;;;;9.79;74.03;100003.66;5325511;26;20785;-47
2024/04/19 04:30:06;;;;;;;1.10;0.63;;;;;;;9.79;73.86;100005.41;5333056;26;20023;-51
2024/04/19 04:32:33;;;;;;;1.35;0.95;;;;;;;9.89;73.56;100014.84;5328726;26;20491;-54
2024/04/19 04:34:59;;;;;;;3.80;0.70;;;;;;;9.85;73.73;99990.72;5320630;26;20016;-51
2024/04/19 04:37:28;;;;;;;1.65;0.63;;;;;;;9.87;73.53;99988.13;5333587;26;20015;-53
2024/04/19 04:39:55;;;;;;;3.13;0.55;;;;;;;9.82;74.11;99976.91;5332126;26;20009;-52
2024/04/19 04:42:22;;;;;;;1.83;0.75;;;;;;;9.82;74.02;99990.72;5331639;26;20020;-47
2024/04/19 04:44:49;;;;;;;2.92;0.65;;;;;;;9.86;73.76;99983.84;5330517;26;20020;-51
2024/04/19 04:47:16;;;;;;;0.75;0.40;;;;;;;9.86;73.76;99999.34;5333049;26;20009;-50
2024/04/19 04:49:43;;;;;;;3.00;0.60;;;;;;;9.83;73.63;100001.94;5320470;26;20000;-49
2024/04/19 04:52:09;;;;;;;2.05;0.52;;;;;;;9.90;73.55;100003.66;5334368;26;20005;-49
2024/04/19 04:54:36;;;;;;;3.95;0.70;;;;;;;9.92;73.50;99999.34;5328425;26;20041;-49
2024/04/19 04:57:07;;;;;;;1.70;1.00;;;;;;;9.94;73.43;100012.28;5334396;26;20036;-48
2024/04/19 04:59:35;;;;;;;1.55;0.52;;;;;;;9.91;73.71;100005.38;5326399;26;20001;-51
2024/04/19 05:02:03;;;;;;;2.47;0.77;;;;;;;9.93;73.66;100010.56;5322739;26;20742;-50
2024/04/19 05:04:30;;;;;;;1.25;1.15;;;;;;;9.85;73.82;100005.38;5322229;26;20045;-49
2024/04/19 05:06:57;;;;;;;3.65;0.70;;;;;;;9.95;73.46;100001.94;5333416;26;20005;-48
2024/04/19 05:09:24;;;;;;;3.67;0.85;;;;;;;9.98;73.21;100006.22;5327023;26;20077;-51
2024/04/19 05:11:51;;;;;;;2.72;0.80;;;;;;;9.98;73.18;99998.47;5323878;26;20005;-50
2024/04/19 05:14:17;;;;;;;1.48;1.02;;;;;;;9.97;73.39;100010.53;5328136;26;20005;-49
2024/04/19 05:16:44;;;;;;;1.88;0.50;;;;;;;9.95;73.68;100020.03;5327351;26;20021;-49
2024/04/19 05:19:11;;;;;;;1.50;0.75;;;;;;;9.88;73.64;100001.06;5319305;26;20024;-48
2024/04/19 05:21:38;;;;;;;2.10;0.77;;;;;;;9.89;73.96;100009.69;5326928;26;20005;-53
2024/04/19 05:24:05;;;;;;;1.60;0.60;;;;;;;9.97;73.50;99999.34;5321613;26;20002;-48
2024/04/19 05:26:32;;;;;;;0.60;0.50;;;;;;;9.86;73.70;99995.03;5319685;26;20635;-47
2024/04/19 05:28:58;;;;;;;2.60;0.73;;;;;;;9.84;74.05;99995.91;5332912;26;20013;-48
2024/04/19 05:31:25;;;;;;;0.75;0.20;;;;;;;9.88;73.71;100007.97;5317864;26;20033;-49
2024/04/19 05:33:52;;;;;;;0.90;0.60;;;;;;;9.88;73.76;100002.78;5326055;26;20005;-51
2024/04/19 05:36:19;;;;;;;1.38;0.90;;;;;;;9.90;73.83;100001.06;5330988;26;20083;-48
2024/04/19 05:38:46;;;;;;;1.90;0.43;;;;;;;9.88;73.65;100007.97;5333788;26;20005;-49
2024/04/19 05:41:13;;;;;;;2.47;1.10;;;;;;;9.91;73.58;100033.84;5335475;26;20041;-49
2024/04/19 05:43:40;;;;;;;2.20;0.70;;;;;;;9.95;73.27;100035.56;5327087;26;20865;-48
2024/04/19 05:46:06;;;;;;;0.90;0.60;;;;;;;9.90;73.46;100032.97;5336088;26;20012;-51
2024/04/19 05:48:33;;;;;;;1.70;1.13;;;;;;;9.89;73.83;100030.38;5320928;26;20017;-51
2024/04/19 05:51:00;;;;;;;2.13;0.55;;;;;;;9.93;73.61;100047.63;5322912;26;20453;-48
2024/04/19 05:53:27;;;;;;;0.95;0.88;;;;;;;9.97;73.35;100048.50;5336151;26;20693;-48
2024/04/19 05:55:54;;;;;;;5.95;1.50;;;;;;;9.99;73.09;100045.03;5333002;26;20048;-49
2024/04/19 05:58:22;;;;;;;2.70;1.05;;;;;;;9.99;73.15;100039.88;5331431;26;20462;-51
2024/04/19 06:00:48;;;;;;;1.15;0.70;;;;;;;9.98;73.21;100039.88;5323273;26;20007;-52
2024/04/19 06:03:16;;;;;;;2.65;2.45;;;;;;;9.96;73.45;100037.28;5335111;26;20756;-49
2024/04/19 06:05:44;;;;;;;0.73;0.40;;;;;;;9.96;73.10;100032.09;5312533;26;20013;-48
2024/04/19 06:08:12;;;;;;;3.92;1.13;;;;;;;10.02;72.96;100044.19;5327082;26;20462;-49
2024/04/19 06:10:40;;;;;;;1.80;1.08;;;;;;;10.00;73.08;100044.16;5335445;26;20001;-48
2024/04/19 06:13:07;;;;;;;2.72;0.60;;;;;;;9.96;73.20;100047.63;5325712;26;20013;-49
2024/04/19 06:15:34;;;;;;;1.40;0.73;;;;;;;9.99;72.88;100042.47;5324686;26;20020;-51
2024/04/19 06:18:00;;;;;;;1.67;0.55;;;;;;;9.98;73.26;100045.91;5331509;26;20013;-53
2024/04/19 06:20:27;;;;;;;1.52;0.95;;;;;;;9.97;73.40;100043.31;5328706;26;20450;-49
2024/04/19 06:22:54;;;;;;;1.77;0.70;;;;;;;10.02;73.16;100047.63;5323285;26;20522;-52
2024/04/19 06:25:21;;;;;;;2.85;0.90;;;;;;;10.04;72.98;100045.06;5331369;26;20012;-49
2024/04/19 06:27:48;;;;;;;11.73;1.13;;;;;;;10.01;73.18;100045.91;5329584;26;20005;-51
2024/04/19 06:30:15;;;;;;;3.38;0.60;;;;;;;10.03;73.10;100048.47;5328330;26;20095;-51
2024/04/19 06:32:42;;;;;;;6.95;0.82;;;;;;;9.99;73.64;100042.47;5317830;26;20017;-50
2024/04/19 06:35:09;;;;;;;2.22;0.73;;;;;;;10.03;73.36;100049.34;5329132;26;20014;-51
2024/04/19 06:37:36;;;;;;;1.48;0.50;;;;;;;10.00;73.72;100048.50;5330967;26;20008;-52
2024/04/19 06:40:03;;;;;;;4.75;0.80;;;;;;;10.01;73.72;100051.09;5335775;26;20023;-52
2024/04/19 06:42:34;;;;;;;1.30;0.60;;;;;;;9.96;74.27;100055.38;5335060;26;20013;-52
2024/04/19 06:45:01;;;;;;;1.63;0.60;;;;;;;9.98;74.09;100050.22;5329522;26;20060;-49
2024/04/19 06:47:28;;;;;;;2.08;0.60;;;;;;;9.93;74.66;100049.38;5338855;26;20012;-49
2024/04/19 06:49:54;;;;;;;3.53;0.65;;;;;;;9.87;75.04;100042.47;5326993;26;20357;-48
2024/04/19 06:52:21;;;;;;;2.47;1.40;;;;;;;9.87;75.34;100052.81;5323000;26;20496;-49
2024/04/19 06:54:48;;;;;;;1.55;1.45;;;;;;;9.85;75.40;100044.19;5322258;26;20821;-51
2024/04/19 06:57:15;;;;;;;1.58;0.50;;;;;;;9.92;74.87;100056.25;5319532;26;20021;-49
2024/04/19 06:59:42;;;;;;;0.90;0.50;;;;;;;9.92;75.02;100058.00;5324311;26;20012;-50
2024/04/19 07:02:09;;;;;;;0.95;0.55;;;;;;;9.97;74.75;100059.69;5330413;26;20756;-50
2024/04/19 07:04:36;;;;;;;1.20;0.80;;;;;;;9.98;74.71;100064.03;5324188;26;20020;-52
2024/04/19 07:07:03;;;;;;;1.77;0.80;;;;;;;10.07;74.40;100059.72;5333101;26;20004;-48
2024/04/19 07:09:30;;;;;;;1.00;0.82;;;;;;;10.08;74.39;100061.44;5327648;26;20028;-48
2024/04/19 07:11:57;;;;;;;1.38;0.70;;;;;;;10.07;74.59;100054.53;5333841;26;20149;-51
2024/04/19 07:14:24;;;;;;;3.53;0.80;;;;;;;10.08;74.49;100045.91;5334251;26;20012;-48
2024/04/19 07:16:51;;;;;;;3.20;0.75;;;;;;;10.12;74.24;100057.97;5330106;26;20027;-50
2024/04/19 07:19:18;;;;;;;1.70;0.50;;;;;;;10.06;74.93;100068.34;5328199;26;20020;-49
2024/04/19 07:21:46;;;;;;;1.10;0.57;;;;;;;10.05;74.94;100051.94;5331879;26;20009;-50
2024/04/19 07:24:13;;;;;;;1.25;0.55;;;;;;;10.10;74.99;100059.72;5326689;26;20083;-50
2024/04/19 07:26:39;;;;;;;0.77;0.47;;;;;;;10.07;75.20;100058.00;5336652;26;20017;-48
2024/04/19 07:29:06;;;;;;;1.40;0.52;;;;;;;10.11;75.37;100061.44;5331308;26;20023;-47
2024/04/19 07:31:33;;;;;;;1.35;0.60;;;;;;;10.19;74.97;100064.88;5334178;26;20008;-51
2024/04/19 07:34:00;;;;;;;2.58;2.22;;;;;;;10.18;75.21;100068.34;5329876;26;20020;-48
2024/04/19 07:36:26;;;;;;;1.00;0.60;;;;;;;10.21;75.10;100068.34;5327365;26;20013;-51
2024/04/19 07:38:53;;;;;;;0.88;0.70;;;;;;;10.19;75.52;100072.63;5330837;26;20013;-48
2024/04/19 07:41:20;;;;;;;0.75;0.40;;;;;;;10.24;75.28;100070.06;5310850;26;20009;-49
2024/04/19 07:43:47;;;;;;;0.95;0.85;;;;;;;10.12;76.49;100065.72;5311105;26;20538;-49
2024/04/19 07:46:21;;;;;;;1.08;0.80;;;;;;;10.13;76.03;100060.56;5324481;26;20015;-51
2024/04/19 07:48:48;;;;;;;0.82;0.50;;;;;;;10.18;75.77;100063.16;5335269;26;20071;-51
2024/04/19 07:51:15;;;;;;;1.13;0.60;;;;;;;10.24;75.98;100057.09;5318197;26;20032;-53
2024/04/19 07:53:42;;;;;;;1.08;0.70;;;;;;;10.28;75.96;100072.66;5317684;26;20024;-53
2024/04/19 07:56:09;;;;;;;2.58;0.73;;;;;;;10.32;76.01;100064.84;5312984;26;20001;-53
2024/04/19 07:58:36;;;;;;;3.60;0.90;;;;;;;10.34;75.60;100078.66;5308616;26;20186;-53
2024/04/19 08:01:04;;;;;;;2.08;0.95;;;;;;;10.31;76.11;100083.84;5327054;26;20005;-51
2024/04/19 08:03:31;;;;;;;2.70;1.35;;;;;;;10.25;76.02;100090.75;5325174;26;20107;-48
2024/04/19 08:05:58;;;;;;;1.40;0.80;;;;;;;10.30;75.97;100090.75;5317675;26;20017;-51
2024/04/19 08:08:25;;;;;;;3.67;0.98;;;;;;;10.24;76.45;100088.16;5336636;26;20012;-49
2024/04/19 08:10:52;;;;;;;1.15;0.70;;;;;;;10.33;75.51;100088.16;5330974;26;20008;-49
2024/04/19 08:13:19;;;;;;;1.92;0.73;;;;;;;10.38;75.72;100095.91;5330247;26;20013;-50
2024/04/19 08:15:45;;;;;;;2.08;0.95;;;;;;;10.35;75.62;100091.63;5321459;26;20060;-52
2024/04/19 08:18:12;;;;;;;4.15;0.70;;;;;;;10.47;74.95;100095.94;5329841;26;21828;-49
2024/04/19 08:20:39;;;;;;;1.45;0.63;;;;;;;10.47;74.85;100095.94;5330363;26;20016;-48
2024/04/19 08:23:06;;;;;;;3.33;0.47;;;;;;;10.39;75.04;100089.88;5314123;26;20005;-49
2024/04/19 08:25:33;;;;;;;0.70;0.52;;;;;;;10.43;74.32;100083.81;5328234;26;20009;-50
2024/04/19 08:27:59;;;;;;;1.65;0.73;;;;;;;10.42;74.28;100097.63;5324473;26;20020;-48
2024/04/19 08:30:26;;;;;;;1.30;0.75;;;;;;;10.43;73.88;100093.34;5328307;26;20013;-48
2024/04/19 08:32:53;;;;;;;1.60;0.90;;;;;;;10.41;73.64;100090.75;5331239;26;20005;-47
2024/04/19 08:35:20;;;;;;;2.00;0.73;;;;;;;10.44;73.44;100089.88;5313641;26;20419;-48
2024/04/19 08:37:47;;;;;;;1.08;1.02;;;;;;;10.45;72.83;100097.69;5318734;26;20005;-51
2024/04/19 08:40:14;;;;;;;1.08;0.55;;;;;;;10.54;72.72;100105.41;5329063;26;20015;-50
2024/04/19 08:42:41;;;;;;;1.77;0.90;;;;;;;10.57;72.10;100106.28;5330713;26;20016;-48
2024/04/19 08:45:10;;;;;;;4.55;0.50;;;;;;;10.64;72.00;100108.00;5335056;26;20004;-49
2024/04/19 08:47:38;;;;;;;1.85;0.60;;;;;;;10.66;71.84;100107.13;5312640;26;20385;-50
2024/04/19 08:50:05;;;;;;;3.60;0.80;;;;;;;10.69;71.13;100114.03;5324308;26;20899;-48
2024/04/19 08:52:32;;;;;;;1.50;0.70;;;;;;;10.76;71.05;100107.09;5332224;26;20044;-49
2024/04/19 08:55:20;;;;;;;2.35;0.82;;;;;;;10.85;70.85;100116.59;5324900;26;20361;-51
2024/04/19 08:57:48;;;;;;;2.45;0.65;;;;;;;10.95;70.76;100113.09;5327875;26;20098;-53
2024/04/19 09:00:15;;;;;;;1.00;0.60;;;;;;;10.97;70.61;100121.72;5327217;26;21081;-50
2024/04/19 09:02:45;;;;;;;2.58;0.65;;;;;;;11.00;70.26;100116.53;5323037;26;20017;-49
2024/04/19 09:05:12;;;;;;;2.15;0.85;;;;;;;11.01;69.98;100123.44;5327033;26;20008;-51
2024/04/19 09:07:40;;;;;;;1.48;0.85;;;;;;;11.00;70.06;100111.34;5320229;26;20412;-52
2024/04/19 09:10:09;;;;;;;0.90;0.50;;;;;;;11.00;70.16;100113.06;5324469;26;20005;-52
2024/04/19 09:12:36;;;;;;;1.85;0.40;;;;;;;10.96;70.03;100120.00;5328478;26;20083;-51
2024/04/19 09:15:03;;;;;;;3.47;0.50;;;;;;;11.01;70.00;100115.66;5322927;26;20009;-50
2024/04/19 09:17:31;;;;;;;1.50;0.45;;;;;;;11.10;69.94;100127.72;5327725;26;20015;-52
2024/04/19 09:19:58;;;;;;;2.45;0.70;;;;;;;11.18;69.87;100125.13;5328386;26;20020;-52
2024/04/19 09:22:25;;;;;;;1.63;0.60;;;;;;;11.22;70.02;100121.66;5302908;26;21598;-50
2024/04/19 09:24:54;;;;;;;2.30;0.95;;;;;;;11.34;70.11;100135.44;5331147;26;20332;-49
2024/04/19 09:27:22;;;;;;;3.05;0.70;;;;;;;11.36;69.69;100129.38;5325101;26;20009;-57
2024/04/19 09:29:50;;;;;;;0.73;0.40;;;;;;;11.28;69.52;100136.31;5329480;26;20009;-50
2024/04/19 09:32:19;;;;;;;4.05;0.93;;;;;;;11.40;69.44;100130.19;5333162;26;20005;-50
2024/04/19 09:34:46;;;;;;;5.28;2.05;;;;;;;11.47;69.44;100137.09;5323506;26;20024;-52
2024/04/19 09:37:13;;;;;;;1.30;0.50;;;;;;;11.54;69.29;100133.59;5333180;26;20021;-53
2024/04/19 09:39:40;;;;;;;3.25;0.95;;;;;;;11.63;69.06;100142.19;5334908;26;20556;-52
2024/04/19 09:42:08;;;;;;;0.77;0.50;;;;;;;11.67;68.89;100139.56;5327765;26;20328;-49
2024/04/19 09:44:37;;;;;;;1.17;1.05;;;;;;;11.70;68.83;100138.69;5332518;26;20012;-50
2024/04/19 09:47:05;;;;;;;1.50;0.77;;;;;;;11.73;68.65;100137.81;5322175;26;20009;-48
2024/04/19 09:49:32;;;;;;;4.68;0.55;;;;;;;11.68;68.47;100135.22;5327946;26;20005;-50
2024/04/19 09:52:01;;;;;;;1.13;0.40;;;;;;;11.68;68.42;100148.19;5322922;26;20119;-48
2024/04/19 09:54:34;;;;;;;5.80;0.85;;;;;;;11.67;68.39;100143.88;5319888;26;20001;-48
2024/04/19 09:57:03;;;;;;;0.50;0.40;;;;;;;11.61;68.56;100149.09;5329286;26;20002;-52
2024/04/19 09:59:34;;;;;;;3.83;0.40;;;;;;;11.59;68.64;100148.25;5332338;26;20042;-49
2024/04/19 10:02:02;;;;;;;0.43;0.30;;;;;;;11.49;68.41;100139.66;5316996;26;20016;-52
2024/04/19 10:04:32;;;;;;;2.25;1.77;;;;;;;11.56;68.51;100147.41;5326589;26;20700;-50
2024/04/19 10:07:01;;;;;;;;;;;;;;;11.41;68.35;100147.47;5333005;26;20009;-49
2024/04/19 10:09:29;;;;;;;3.28;0.60;;;;;;;11.57;68.41;100149.16;5331450;26;19926;-48
2024/04/19 10:11:57;;;;;;;1.77;0.65;;;;;;;11.62;68.21;100146.50;5332119;26;20013;-52
2024/04/19 10:14:24;;;;;;;2.65;0.50;;;;;;;11.58;67.97;100155.19;5333512;26;20016;-50
2024/04/19 10:16:54;;;;;;;0.75;0.40;;;;;;;11.62;68.14;100141.31;5336500;26;20457;-49
2024/04/19 10:19:21;;;;;;;;;;;;;;;11.59;67.57;100145.66;5324976;26;20016;-49
2024/04/19 10:21:54;;;;;;;3.15;0.32;;;;;;;11.67;67.99;100141.28;5329527;26;20003;-53
2024/04/19 10:24:22;;;;;;;1.67;0.50;;;;;;;11.64;67.27;100144.78;5326853;26;20001;-47
2024/04/19 10:26:50;;;;;;;0.93;0.50;;;;;;;11.74;67.58;100155.97;5334335;26;20008;-50
2024/04/19 10:29:18;;;;;;;1.58;0.55;;;;;;;11.83;68.10;100140.31;5331250;26;20015;-52
2024/04/19 10:31:47;;;;;;;1.80;0.55;;;;;;;11.90;68.05;100148.94;5330544;26;20009;-48
2024/04/19 10:34:14;;;;;;;1.25;0.55;;;;;;;11.95;68.44;100148.91;5324087;26;20295;-53
2024/04/19 10:36:41;;;;;;;3.03;0.63;;;;;;;11.89;68.42;100154.16;5319835;26;20045;-50
2024/04/19 10:39:08;;;;;;;2.75;1.10;;;;;;;11.97;68.17;100154.97;5324316;26;20012;-52
2024/04/19 10:41:35;;;;;;;1.85;0.40;;;;;;;11.99;68.14;100140.22;5322641;26;20013;-49
2024/04/19 10:44:01;;;;;;;1.75;0.95;;;;;;;12.10;67.76;100157.50;5328347;26;20591;-52
2024/04/19 10:46:29;;;;;;;0.65;0.40;;;;;;;12.23;67.43;100147.88;5327078;26;20005;-47
2024/04/19 10:48:57;;;;;;;1.35;0.77;;;;;;;12.25;66.10;100147.00;5332578;26;20017;-51
2024/04/19 10:51:25;;;;;;;0.90;0.75;;;;;;;12.43;65.32;100139.94;5335246;26;20103;-50
2024/04/19 10:53:51;;;;;;;2.00;0.63;;;;;;;12.56;64.44;100146.72;5325194;26;20005;-48
2024/04/19 10:56:18;;;;;;;2.55;0.70;;;;;;;12.76;64.64;100143.06;5324178;26;20005;-48
2024/04/19 10:58:45;;;;;;;2.38;0.60;;;;;;;12.85;63.51;100148.19;5335749;26;20040;-51
2024/04/19 11:01:12;;;;;;;2.53;2.05;;;;;;;13.03;63.69;100141.03;5317243;26;20523;-48
2024/04/19 11:03:39;;;;;;;0.80;0.32;;;;;;;13.24;63.75;100145.13;5323493;26;20005;-49
2024/04/19 11:06:06;;;;;;;3.83;0.38;;;;;;;13.45;62.75;100126.66;5327838;26;20075;-48
2024/04/19 11:08:36;;;;;;;3.35;0.77;;;;;;;13.60;60.60;100136.91;5325803;26;20819;-48
2024/04/19 11:11:03;;;;;;;1.08;0.52;;;;;;;13.81;61.11;100124.44;5325518;26;20033;-47
2024/04/19 11:13:30;;;;;;;2.22;0.80;;;;;;;13.95;60.19;100137.25;5329280;26;20316;-50
2024/04/19 11:15:57;;;;;;;3.65;0.98;;;;;;;14.14;61.25;100147.38;5334338;26;20021;-52
2024/04/19 11:18:24;;;;;;;0.68;0.57;;;;;;;14.32;60.67;100143.63;5322163;26;20327;-47
2024/04/19 11:20:52;;;;;;;7.38;0.85;;;;;;;14.47;59.32;100144.25;5333873;26;20377;-50
2024/04/19 11:23:31;;;;;;;0.65;0.20;;;;;;;14.59;58.69;100138.81;5330328;26;20013;-49
2024/04/19 11:25:58;;;;;;;3.75;0.50;;;;;;;14.67;57.01;100140.41;5327586;26;20764;-50
2024/04/19 11:28:24;;;;;;;0.80;0.40;;;;;;;14.77;56.99;100134.19;5327379;26;20017;-47
2024/04/19 11:30:51;;;;;;;3.88;0.93;;;;;;;14.83;55.81;100146.25;5325292;26;20043;-49
2024/04/19 11:33:20;;;;;;;1.85;0.60;;;;;;;15.01;56.32;100139.81;5335811;26;20033;-52
2024/04/19 11:35:47;;;;;;;5.30;0.73;;;;;;;15.23;55.22;100131.56;5334846;26;20001;-48